Krisjanis Valdemars — V7LI9 — position and weather

sailwx.info

Track history (hours):
 
Tides and Currents Weather Stations Pressure Air Temp Water Temp Dewpoint Dewpoint Depression Visibility Wind Speed Wind Dir Waves Ship Positions

Krisjanis Valdemars

Last reported at 2017-Aug-21 11:41 UTC. Time now 2017-Aug-21 21:51 UTC.
Position N 43°33' W 009°12'.

Length 183 m; draft 11 m.

Type: Tanker. MMSI: 538002757.

Date/timePositionNaut miles runAvg speedWind from/ knotsBaromVisibWave heightAir tempDewpointWater temp
2017-Aug-21 11:41N 43°33' W 009°12'312.6
2017-Aug-21 11:25N 43°32' W 009°07'712.5
2017-Aug-21 10:52N 43°29' W 008°59'  
2017-Aug-18 23:01N 49°36' W 003°56'110.9
2017-Aug-18 22:56N 49°36' W 003°55'511.1
2017-Aug-18 22:30N 49°39' W 003°48'611.4
2017-Aug-18 22:00N 49°42' W 003°40'611.6
2017-Aug-18 21:30N 49°45' W 003°33'611.6
2017-Aug-18 21:00N 49°48' W 003°25'611.0
2017-Aug-18 20:30N 49°50' W 003°18'611.1
2017-Aug-18 20:00N 49°53' W 003°10'510.7
2017-Aug-18 19:30N 49°56' W 003°03'510.4
2017-Aug-18 19:00N 49°58' W 002°56'510.0
2017-Aug-18 18:30N 49°59' W 002°48'5 9.6
2017-Aug-18 18:00N 50°00' W 002°41'26 8.7
2017-Aug-18 15:02N 50°07' W 002°02'0 9.3
2017-Aug-18 15:00N 50°07' W 002°02'6 9.7
2017-Aug-18 14:21N 50°09' W 001°52'1010.8
2017-Aug-18 13:26N 50°12' W 001°38'511.7
2017-Aug-18 13:00N 50°14' W 001°30'612.4
2017-Aug-18 12:30N 50°15' W 001°21'613.0
2017-Aug-18 12:01N 50°17' W 001°11'3113.2
2017-Aug-18 09:40N 50°25' W 000°24'212.5
2017-Aug-18 09:30N 50°26' W 000°21'612.2
2017-Aug-18 09:00N 50°27' W 000°12'611.6
2017-Aug-18 08:30N 50°29' W 000°03'611.3
2017-Aug-18 08:00N 50°30' E 000°05'611.2
2017-Aug-18 07:30N 50°32' E 000°14'510.9
2017-Aug-18 07:00N 50°33' E 000°22'510.7
2017-Aug-18 06:30N 50°35' E 000°30'510.3
2017-Aug-18 06:00N 50°37' E 000°38'510.4
2017-Aug-18 05:30N 50°41' E 000°44'510.7
2017-Aug-18 05:00N 50°44' E 000°50'611.1
2017-Aug-18 04:30N 50°48' E 000°57'611.8
2017-Aug-18 03:59N 50°52' E 001°04'712.5
2017-Aug-18 03:27N 50°56' E 001°12'613.0
2017-Aug-18 03:00N 50°60' E 001°19'713.4
2017-Aug-18 02:30N 51°04' E 001°28'713.2
2017-Aug-18 02:00N 51°08' E 001°36'612.6
2017-Aug-18 01:30N 51°12' E 001°43'612.1
2017-Aug-18 01:00N 51°17' E 001°49'611.6
2017-Aug-18 00:30N 51°22' E 001°55'510.7
2017-Aug-18 00:00N 51°26' E 002°01'611.6
2017-Aug-17 23:30N 51°23' E 002°09'611.1
2017-Aug-17 23:00N 51°20' E 002°17'510.5
2017-Aug-17 22:30N 51°22' E 002°25'510.1
2017-Aug-17 22:00N 51°23' E 002°33'510.3
2017-Aug-17 21:30N 51°23' E 002°41'4 8.9
2017-Aug-17 21:00N 51°22' E 002°48'5 9.8
2017-Aug-17 20:30N 51°23' E 002°56'5 9.6
2017-Aug-17 20:00N 51°25' E 003°03'5 9.4
2017-Aug-17 19:30N 51°24' E 003°10'5 9.4
2017-Aug-17 19:00N 51°24' E 003°18'5 9.4
2017-Aug-17 18:30N 51°25' E 003°25'5 9.7
2017-Aug-17 18:00N 51°25' E 003°33'3 6.1
2017-Aug-17 17:30N 51°26' E 003°38'4 8.7
2017-Aug-17 17:00N 51°23' E 003°43'510.8
2017-Aug-17 16:30N 51°21' E 003°51'510.5
2017-Aug-17 16:00N 51°24' E 003°57'3 6.1
2017-Aug-17 15:30N 51°24' E 004°02'5 9.8
2017-Aug-17 15:00N 51°23' E 004°10'4 8.3
2017-Aug-17 14:30N 51°21' E 004°16'1 2.3
2017-Aug-17 14:01N 51°21' E 004°17'0 0.0
2017-Aug-17 13:31N 51°21' E 004°17'0 0.5
2017-Aug-17 13:01N 51°21' E 004°18'3 6.4
2017-Aug-17 12:30N 51°18' E 004°20'2 3.8
2017-Aug-17 12:01N 51°16' E 004°22'0 0.3
2017-Aug-17 11:28N 51°16' E 004°21'0 0.0
2017-Aug-17 10:55N 51°16' E 004°21'0 0.0
2017-Aug-17 10:28N 51°16' E 004°21'0 0.0
2017-Aug-17 09:58N 51°16' E 004°21'0 0.0
2017-Aug-17 09:28N 51°16' E 004°21'0 0.0
2017-Aug-17 08:55N 51°16' E 004°21'0 0.0
2017-Aug-17 08:28N 51°16' E 004°21'0 0.0
2017-Aug-17 07:58N 51°16' E 004°21'0 0.0
2017-Aug-17 07:25N 51°16' E 004°21'0 0.0
2017-Aug-17 06:55N 51°16' E 004°21'0 0.0
2017-Aug-17 06:28N 51°16' E 004°21'0 0.0
2017-Aug-17 05:58N 51°16' E 004°21'0 0.0
2017-Aug-17 05:28N 51°16' E 004°21'0 0.0
2017-Aug-17 04:58N 51°16' E 004°21'0 0.0
2017-Aug-17 04:28N 51°16' E 004°21'0 0.0
2017-Aug-17 03:55N 51°16' E 004°21'0 0.0
2017-Aug-17 03:28N 51°16' E 004°21'0 0.0
2017-Aug-17 02:55N 51°16' E 004°21'0 0.0
2017-Aug-17 02:28N 51°16' E 004°21'0 0.0
2017-Aug-17 01:58N 51°16' E 004°21'0 0.0
2017-Aug-17 01:28N 51°16' E 004°21'0 0.0
2017-Aug-17 00:58N 51°16' E 004°21'0 0.0
2017-Aug-17 00:28N 51°16' E 004°21'0 0.0
2017-Aug-16 23:58N 51°16' E 004°21'0 0.0
2017-Aug-16 23:28N 51°16' E 004°21'0 0.0
2017-Aug-16 22:58N 51°16' E 004°21'0 0.0
2017-Aug-16 22:28N 51°16' E 004°21'0 0.0
2017-Aug-16 21:58N 51°16' E 004°21'0 0.0
2017-Aug-16 21:28N 51°16' E 004°21'0 0.0
2017-Aug-16 20:58N 51°16' E 004°21'0 0.0
2017-Aug-16 20:28N 51°16' E 004°21'0 0.0
2017-Aug-16 19:58N 51°16' E 004°21'0 0.0
2017-Aug-16 19:28N 51°16' E 004°21'0 0.0
2017-Aug-16 18:58N 51°16' E 004°21'0 0.0
2017-Aug-16 18:28N 51°16' E 004°21'0 0.0
2017-Aug-16 17:58N 51°16' E 004°21'0 0.0
2017-Aug-16 17:28N 51°16' E 004°21'0 0.0
2017-Aug-16 16:58N 51°16' E 004°21'0 0.0
2017-Aug-16 16:28N 51°16' E 004°21'0 0.0
2017-Aug-16 15:55N 51°16' E 004°21'0 0.0
2017-Aug-16 15:28N 51°16' E 004°21'0 0.0
2017-Aug-16 14:58N 51°16' E 004°21'0 0.0
2017-Aug-16 14:28N 51°16' E 004°21'0 0.0
2017-Aug-16 13:58N 51°16' E 004°21'0 0.0
2017-Aug-16 13:28N 51°16' E 004°21'0 0.0
2017-Aug-16 12:58N 51°16' E 004°21'0 0.0
2017-Aug-16 12:25N 51°16' E 004°21'0 0.0
2017-Aug-16 11:58N 51°16' E 004°21'0 0.0
2017-Aug-16 11:28N 51°16' E 004°21'0 0.0
2017-Aug-16 10:58N 51°16' E 004°21'0 0.0
2017-Aug-16 10:25N 51°16' E 004°21'0 0.0
2017-Aug-16 09:58N 51°16' E 004°21'0 0.0
2017-Aug-16 09:28N 51°16' E 004°21'0 0.0
2017-Aug-16 08:58N 51°16' E 004°21'0 0.0
2017-Aug-16 08:28N 51°16' E 004°21'0 0.0
2017-Aug-16 07:55N 51°16' E 004°21'0 0.0
2017-Aug-16 07:28N 51°16' E 004°21'0 0.0
2017-Aug-16 06:58N 51°16' E 004°21'0 0.0
2017-Aug-16 06:28N 51°16' E 004°21'0 0.0
2017-Aug-16 05:55N 51°16' E 004°21'0 0.0
2017-Aug-16 05:28N 51°16' E 004°21'0 0.0
2017-Aug-16 04:58N 51°16' E 004°21'0 0.0
2017-Aug-16 04:25N 51°16' E 004°21'0 0.0
2017-Aug-16 03:58N 51°16' E 004°21'0 0.0
2017-Aug-16 03:28N 51°16' E 004°21'0 0.0
2017-Aug-16 02:58N 51°16' E 004°21'0 0.0
2017-Aug-16 02:28N 51°16' E 004°21'0 0.0
2017-Aug-16 01:58N 51°16' E 004°21'0 0.0
2017-Aug-16 01:28N 51°16' E 004°21'0 0.0
2017-Aug-16 00:58N 51°16' E 004°21'0 0.0
2017-Aug-16 00:25N 51°16' E 004°21'0 0.0
2017-Aug-15 23:58N 51°16' E 004°21'0 0.0
2017-Aug-15 23:28N 51°16' E 004°21'0 0.0
2017-Aug-15 22:58N 51°16' E 004°21'0 0.0
2017-Aug-15 22:28N 51°16' E 004°21'0 0.0
2017-Aug-15 21:58N 51°16' E 004°21'0 0.0
2017-Aug-15 21:28N 51°16' E 004°21'0 0.0
2017-Aug-15 20:58N 51°16' E 004°21'0 0.0
2017-Aug-15 20:28N 51°16' E 004°21'0 0.0
2017-Aug-15 19:58N 51°16' E 004°21'0 0.0
2017-Aug-15 19:28N 51°16' E 004°21'0 0.0
2017-Aug-15 18:58N 51°16' E 004°21'0 0.0
2017-Aug-15 18:28N 51°16' E 004°21'0 0.0
2017-Aug-15 17:58N 51°16' E 004°21'0 0.0
2017-Aug-15 17:28N 51°16' E 004°21'0 0.0
2017-Aug-15 16:58N 51°16' E 004°21'0 0.0
2017-Aug-15 16:28N 51°16' E 004°21'0 0.0
2017-Aug-15 15:58N 51°16' E 004°21'0 0.0
2017-Aug-15 15:28N 51°16' E 004°21'0 0.0
2017-Aug-15 14:58N 51°16' E 004°21'0 0.0
2017-Aug-15 14:25N 51°16' E 004°21'0 0.0
2017-Aug-15 13:58N 51°16' E 004°21'0 0.0
2017-Aug-15 13:28N 51°16' E 004°21'0 0.0
2017-Aug-15 12:58N 51°16' E 004°21'0 0.0
2017-Aug-15 12:25N 51°16' E 004°21'0 0.0
2017-Aug-15 11:58N 51°16' E 004°21'0 0.0
2017-Aug-15 11:28N 51°16' E 004°21'0 0.0
2017-Aug-15 10:58N 51°16' E 004°21'0 0.0
2017-Aug-15 10:28N 51°16' E 004°21'0 0.0
2017-Aug-15 09:55N 51°16' E 004°21'0 0.0
2017-Aug-15 09:28N 51°16' E 004°21'0 0.0
2017-Aug-15 08:58N 51°16' E 004°21'0 0.4
2017-Aug-15 08:30N 51°16' E 004°22'2 3.7
2017-Aug-15 08:00N 51°18' E 004°20'3 7.0
2017-Aug-15 07:30N 51°21' E 004°17'0 0.1
2017-Aug-15 07:01N 51°21' E 004°17'0 0.0
2017-Aug-15 06:31N 51°21' E 004°17'0 0.2
2017-Aug-15 06:00N 51°21' E 004°17'2 3.8
2017-Aug-15 05:31N 51°21' E 004°14'3 6.3
2017-Aug-15 05:00N 51°24' E 004°11'4 7.6
2017-Aug-15 04:30N 51°22' E 004°05'3 6.5
2017-Aug-15 04:01N 51°25' E 004°02'3 5.7
2017-Aug-15 03:31N 51°24' E 003°57'611.6
2017-Aug-15 03:00N 51°21' E 003°50'612.4
2017-Aug-15 02:30N 51°25' E 003°42'5 9.8
2017-Aug-15 02:00N 51°26' E 003°35'5 9.6
2017-Aug-15 01:30N 51°25' E 003°27'612.5
2017-Aug-15 01:00N 51°24' E 003°17'611.8
2017-Aug-15 00:30N 51°24' E 003°08'611.0
2017-Aug-15 00:00N 51°23' E 002°59'612.1
2017-Aug-14 23:30N 51°22' E 002°50'611.1
2017-Aug-14 23:00N 51°22' E 002°41'4 7.7
2017-Aug-14 22:30N 51°24' E 002°36'0 0.7
2017-Aug-14 21:59N 51°24' E 002°35'0 0.1
2017-Aug-14 21:29N 51°24' E 002°35'0 0.2
2017-Aug-14 20:59N 51°24' E 002°35'0 0.1
2017-Aug-14 20:29N 51°24' E 002°36'0 0.1
2017-Aug-14 19:59N 51°24' E 002°36'0 0.0
2017-Aug-14 19:29N 51°24' E 002°36'0 0.0
2017-Aug-14 18:59N 51°24' E 002°36'0 0.0
2017-Aug-14 18:29N 51°24' E 002°36'0 0.0
2017-Aug-14 17:59N 51°24' E 002°36'0 0.0
2017-Aug-14 17:29N 51°24' E 002°36'0 0.0
2017-Aug-14 16:59N 51°24' E 002°36'0 0.0
2017-Aug-14 16:29N 51°24' E 002°36'0 0.2
2017-Aug-14 15:59N 51°24' E 002°36'0 0.2
2017-Aug-14 15:29N 51°24' E 002°35'0 0.1
2017-Aug-14 14:59N 51°24' E 002°35'0 0.0
2017-Aug-14 14:29N 51°24' E 002°35'0 0.0
2017-Aug-14 13:59N 51°24' E 002°35'0 0.0
2017-Aug-14 13:29N 51°24' E 002°35'0 0.0
2017-Aug-14 12:59N 51°24' E 002°35'0 0.0
2017-Aug-14 12:29N 51°24' E 002°35'0 0.0
2017-Aug-14 11:59N 51°24' E 002°35'0 0.0
2017-Aug-14 11:29N 51°24' E 002°35'0 0.0
2017-Aug-14 10:56N 51°24' E 002°35'0 0.1
2017-Aug-14 10:29N 51°24' E 002°35'0 0.0
2017-Aug-14 09:59N 51°24' E 002°35'0 0.0
2017-Aug-14 09:29N 51°24' E 002°35'0 0.0
2017-Aug-14 08:59N 51°24' E 002°35'0 0.1
2017-Aug-14 08:29N 51°24' E 002°35'0 0.1
2017-Aug-14 07:59N 51°24' E 002°35'0 0.1
2017-Aug-14 07:29N 51°24' E 002°36'0 0.0
2017-Aug-14 06:59N 51°24' E 002°36'0 0.0
2017-Aug-14 06:29N 51°24' E 002°36'0 0.0
2017-Aug-14 05:59N 51°24' E 002°36'0 0.0
2017-Aug-14 05:26N 51°24' E 002°36'0 0.0
2017-Aug-14 04:59N 51°24' E 002°36'0 0.0
2017-Aug-14 04:29N 51°24' E 002°36'0 0.0
2017-Aug-14 03:59N 51°24' E 002°36'0 0.0
2017-Aug-14 03:29N 51°24' E 002°36'0 0.2
2017-Aug-14 02:59N 51°24' E 002°36'0 0.2
2017-Aug-14 02:29N 51°24' E 002°35'0 0.1
2017-Aug-14 01:59N 51°24' E 002°35'0 0.0
2017-Aug-14 01:29N 51°24' E 002°35'0 0.0
2017-Aug-14 00:59N 51°24' E 002°35'0 0.0
2017-Aug-14 00:29N 51°24' E 002°35'0 0.0
2017-Aug-13 23:59N 51°24' E 002°35'0 0.0
2017-Aug-13 23:29N 51°24' E 002°35'0 0.0
2017-Aug-13 22:59N 51°24' E 002°35'0 0.0
2017-Aug-13 22:29N 51°24' E 002°35'0 0.0
2017-Aug-13 21:59N 51°24' E 002°35'0 0.0
2017-Aug-13 21:29N 51°24' E 002°35'0 0.0
2017-Aug-13 20:59N 51°24' E 002°35'0 0.1
2017-Aug-13 20:29N 51°24' E 002°35'0 0.2
2017-Aug-13 19:59N 51°24' E 002°35'0 0.1
2017-Aug-13 19:26N 51°24' E 002°36'0 0.1
2017-Aug-13 18:59N 51°24' E 002°36'0 0.0
2017-Aug-13 18:29N 51°24' E 002°36'0 0.0
2017-Aug-13 17:59N 51°24' E 002°36'0 0.0
2017-Aug-13 17:29N 51°24' E 002°36'0 0.0
2017-Aug-13 16:59N 51°24' E 002°36'0 0.0
2017-Aug-13 16:29N 51°24' E 002°36'0 0.0
2017-Aug-13 15:59N 51°24' E 002°36'0 0.1
2017-Aug-13 15:29N 51°24' E 002°36'0 0.1
2017-Aug-13 14:59N 51°24' E 002°36'0 0.1
2017-Aug-13 14:29N 51°24' E 002°36'0 0.2
2017-Aug-13 13:59N 51°24' E 002°35'0 0.1
2017-Aug-13 13:29N 51°24' E 002°35'0 0.0
2017-Aug-13 12:59N 51°24' E 002°35'0 0.0
2017-Aug-13 12:29N 51°24' E 002°35'0 0.0
2017-Aug-13 11:59N 51°24' E 002°35'0 0.0
2017-Aug-13 11:29N 51°24' E 002°35'0 0.0
2017-Aug-13 10:59N 51°24' E 002°35'0 0.0
2017-Aug-13 10:29N 51°24' E 002°35'0 0.0
2017-Aug-13 09:59N 51°24' E 002°35'0 0.0
2017-Aug-13 09:29N 51°24' E 002°35'0 0.0
2017-Aug-13 08:59N 51°24' E 002°35'0 0.0
2017-Aug-13 08:29N 51°24' E 002°35'0 0.1
2017-Aug-13 08:00N 51°24' E 002°36'0 0.2
2017-Aug-13 07:29N 51°24' E 002°36'0 0.1
2017-Aug-13 06:59N 51°24' E 002°36'0 0.0
2017-Aug-13 06:29N 51°24' E 002°36'0 0.0
2017-Aug-13 05:59N 51°24' E 002°36'0 0.0
2017-Aug-13 05:29N 51°24' E 002°36'0 0.0
2017-Aug-13 04:59N 51°24' E 002°36'0 0.0
2017-Aug-13 04:29N 51°24' E 002°36'0 0.0
2017-Aug-13 03:59N 51°24' E 002°36'0 0.0
2017-Aug-13 03:29N 51°24' E 002°36'0 0.1
2017-Aug-13 02:59N 51°24' E 002°36'0 0.1
2017-Aug-13 02:29N 51°24' E 002°36'0 0.1
2017-Aug-13 01:53N 51°24' E 002°36'0 0.1
2017-Aug-13 01:29N 51°24' E 002°36'0 0.1
2017-Aug-13 00:59N 51°24' E 002°35'0 0.1
2017-Aug-13 00:29N 51°24' E 002°35'0 0.0
2017-Aug-12 23:56N 51°24' E 002°35'0 0.0
2017-Aug-12 23:29N 51°24' E 002°35'0 0.0
2017-Aug-12 22:59N 51°24' E 002°35'0 0.0
2017-Aug-12 22:29N 51°24' E 002°35'0 0.0
2017-Aug-12 21:59N 51°24' E 002°35'0 0.1
2017-Aug-12 21:29N 51°24' E 002°35'0 0.1
2017-Aug-12 20:59N 51°24' E 002°35'0 0.2
2017-Aug-12 20:29N 51°24' E 002°36'0 0.1
2017-Aug-12 19:59N 51°24' E 002°36'0 0.0
2017-Aug-12 19:29N 51°24' E 002°36'0 0.1
2017-Aug-12 18:59N 51°24' E 002°36'0 0.0
2017-Aug-12 18:29N 51°24' E 002°36'0 0.0
2017-Aug-12 17:59N 51°24' E 002°36'0 0.0
2017-Aug-12 17:29N 51°24' E 002°36'0 0.0
2017-Aug-12 16:59N 51°24' E 002°36'0 0.0
2017-Aug-12 16:29N 51°24' E 002°36'0 0.0
2017-Aug-12 15:59N 51°24' E 002°36'0 0.0
2017-Aug-12 15:29N 51°24' E 002°36'0 0.0
2017-Aug-12 14:59N 51°24' E 002°36'0 0.0
2017-Aug-12 14:29N 51°24' E 002°36'0 0.0
2017-Aug-12 13:59N 51°24' E 002°36'0 0.1
2017-Aug-12 13:29N 51°24' E 002°36'0 0.3
2017-Aug-12 12:59N 51°24' E 002°35'0 0.1
2017-Aug-12 12:29N 51°24' E 002°35'0 0.0
2017-Aug-12 11:59N 51°24' E 002°35'0 0.0
2017-Aug-12 11:29N 51°24' E 002°35'0 0.0
2017-Aug-12 10:59N 51°24' E 002°35'0 0.0
2017-Aug-12 10:29N 51°24' E 002°35'0 0.0
2017-Aug-12 09:59N 51°24' E 002°35'0 0.0
2017-Aug-12 09:29N 51°24' E 002°35'0 0.1
2017-Aug-12 08:59N 51°24' E 002°36'0 0.2
2017-Aug-12 08:29N 51°24' E 002°36'0 0.1
2017-Aug-12 07:56N 51°24' E 002°36'0 0.1
2017-Aug-12 07:29N 51°24' E 002°36'0 0.0
2017-Aug-12 06:59N 51°24' E 002°36'0 0.0
2017-Aug-12 06:29N 51°24' E 002°36'0 0.0
2017-Aug-12 05:59N 51°24' E 002°36'0 0.0
2017-Aug-12 05:29N 51°24' E 002°36'0 0.0
2017-Aug-12 04:59N 51°24' E 002°36'0 0.0
2017-Aug-12 04:26N 51°24' E 002°36'0 0.0
2017-Aug-12 03:59N 51°24' E 002°36'0 0.0
2017-Aug-12 03:29N 51°24' E 002°36'0 0.0
2017-Aug-12 02:59N 51°24' E 002°36'0 0.0
2017-Aug-12 02:29N 51°24' E 002°36'0 0.0
2017-Aug-12 01:59N 51°24' E 002°36'0 0.1
2017-Aug-12 01:29N 51°24' E 002°36'0 0.0
2017-Aug-12 00:59N 51°24' E 002°36'0 0.0
2017-Aug-12 00:29N 51°24' E 002°36'0 0.3
2017-Aug-11 23:59N 51°24' E 002°36'0 0.1
2017-Aug-11 23:29N 51°24' E 002°35'0 0.0
2017-Aug-11 22:59N 51°24' E 002°35'0 0.1
2017-Aug-11 22:29N 51°24' E 002°35'0 0.1
2017-Aug-11 21:59N 51°24' E 002°36'0 0.2
2017-Aug-11 21:29N 51°24' E 002°36'0 0.1
2017-Aug-11 20:59N 51°24' E 002°36'0 0.0
2017-Aug-11 20:26N 51°24' E 002°36'0 0.0
2017-Aug-11 19:59N 51°24' E 002°36'0 0.1
2017-Aug-11 19:29N 51°24' E 002°36'0 0.0
2017-Aug-11 18:59N 51°24' E 002°36'0 0.0
2017-Aug-11 18:29N 51°24' E 002°36'0 0.0
2017-Aug-11 17:59N 51°24' E 002°36'0 0.0
2017-Aug-11 17:29N 51°24' E 002°36'0 0.0
2017-Aug-11 16:59N 51°24' E 002°36'0 0.0
2017-Aug-11 16:29N 51°24' E 002°36'0 0.0
2017-Aug-11 15:59N 51°24' E 002°36'0 0.0
2017-Aug-11 15:29N 51°24' E 002°36'0 0.1
2017-Aug-11 14:59N 51°24' E 002°36'0 0.0
2017-Aug-11 13:59N 51°24' E 002°36'0 0.1
2017-Aug-11 13:29N 51°24' E 002°36'0 0.2
2017-Aug-11 12:56N 51°24' E 002°35'0 0.2
2017-Aug-11 12:29N 51°24' E 002°35'0 0.0
2017-Aug-11 11:59N 51°24' E 002°35'  
Track history (hours):
 
Tides and Currents Weather Stations Pressure Air Temp Water Temp Dewpoint Dewpoint Depression Visibility Wind Speed Wind Dir Waves Ship Positions

Krisjanis Valdemars

Last reported at 2017-Aug-21 11:41 UTC. Time now 2017-Aug-21 21:51 UTC.
Position N 43°33' W 009°12'.

Length 183 m; draft 11 m.

Type: Tanker. MMSI: 538002757.

Date/timePositionNaut miles runAvg speedWind from/ knotsBaromVisibWave heightAir tempDewpointWater temp
2017-Aug-21 11:41N 43°33' W 009°12'312.6
2017-Aug-21 11:25N 43°32' W 009°07'712.5
2017-Aug-21 10:52N 43°29' W 008°59'  
2017-Aug-18 23:01N 49°36' W 003°56'110.9
2017-Aug-18 22:56N 49°36' W 003°55'511.1
2017-Aug-18 22:30N 49°39' W 003°48'611.4
2017-Aug-18 22:00N 49°42' W 003°40'611.6
2017-Aug-18 21:30N 49°45' W 003°33'611.6
2017-Aug-18 21:00N 49°48' W 003°25'611.0
2017-Aug-18 20:30N 49°50' W 003°18'611.1
2017-Aug-18 20:00N 49°53' W 003°10'510.7
2017-Aug-18 19:30N 49°56' W 003°03'510.4
2017-Aug-18 19:00N 49°58' W 002°56'510.0
2017-Aug-18 18:30N 49°59' W 002°48'5 9.6
2017-Aug-18 18:00N 50°00' W 002°41'26 8.7
2017-Aug-18 15:02N 50°07' W 002°02'0 9.3
2017-Aug-18 15:00N 50°07' W 002°02'6 9.7
2017-Aug-18 14:21N 50°09' W 001°52'1010.8
2017-Aug-18 13:26N 50°12' W 001°38'511.7
2017-Aug-18 13:00N 50°14' W 001°30'612.4
2017-Aug-18 12:30N 50°15' W 001°21'613.0
2017-Aug-18 12:01N 50°17' W 001°11'3113.2
2017-Aug-18 09:40N 50°25' W 000°24'212.5
2017-Aug-18 09:30N 50°26' W 000°21'612.2
2017-Aug-18 09:00N 50°27' W 000°12'611.6
2017-Aug-18 08:30N 50°29' W 000°03'611.3
2017-Aug-18 08:00N 50°30' E 000°05'611.2
2017-Aug-18 07:30N 50°32' E 000°14'510.9
2017-Aug-18 07:00N 50°33' E 000°22'510.7
2017-Aug-18 06:30N 50°35' E 000°30'510.3
2017-Aug-18 06:00N 50°37' E 000°38'510.4
2017-Aug-18 05:30N 50°41' E 000°44'510.7
2017-Aug-18 05:00N 50°44' E 000°50'611.1
2017-Aug-18 04:30N 50°48' E 000°57'611.8
2017-Aug-18 03:59N 50°52' E 001°04'712.5
2017-Aug-18 03:27N 50°56' E 001°12'613.0
2017-Aug-18 03:00N 50°60' E 001°19'713.4
2017-Aug-18 02:30N 51°04' E 001°28'713.2
2017-Aug-18 02:00N 51°08' E 001°36'612.6
2017-Aug-18 01:30N 51°12' E 001°43'612.1
2017-Aug-18 01:00N 51°17' E 001°49'611.6
2017-Aug-18 00:30N 51°22' E 001°55'510.7
2017-Aug-18 00:00N 51°26' E 002°01'611.6
2017-Aug-17 23:30N 51°23' E 002°09'611.1
2017-Aug-17 23:00N 51°20' E 002°17'510.5
2017-Aug-17 22:30N 51°22' E 002°25'510.1
2017-Aug-17 22:00N 51°23' E 002°33'510.3
2017-Aug-17 21:30N 51°23' E 002°41'4 8.9
2017-Aug-17 21:00N 51°22' E 002°48'5 9.8
2017-Aug-17 20:30N 51°23' E 002°56'5 9.6
2017-Aug-17 20:00N 51°25' E 003°03'5 9.4
2017-Aug-17 19:30N 51°24' E 003°10'5 9.4
2017-Aug-17 19:00N 51°24' E 003°18'5 9.4
2017-Aug-17 18:30N 51°25' E 003°25'5 9.7
2017-Aug-17 18:00N 51°25' E 003°33'3 6.1
2017-Aug-17 17:30N 51°26' E 003°38'4 8.7
2017-Aug-17 17:00N 51°23' E 003°43'510.8
2017-Aug-17 16:30N 51°21' E 003°51'510.5
2017-Aug-17 16:00N 51°24' E 003°57'3 6.1
2017-Aug-17 15:30N 51°24' E 004°02'5 9.8
2017-Aug-17 15:00N 51°23' E 004°10'4 8.3
2017-Aug-17 14:30N 51°21' E 004°16'1 2.3
2017-Aug-17 14:01N 51°21' E 004°17'0 0.0
2017-Aug-17 13:31N 51°21' E 004°17'0 0.5
2017-Aug-17 13:01N 51°21' E 004°18'3 6.4
2017-Aug-17 12:30N 51°18' E 004°20'2 3.8
2017-Aug-17 12:01N 51°16' E 004°22'0 0.3
2017-Aug-17 11:28N 51°16' E 004°21'0 0.0
2017-Aug-17 10:55N 51°16' E 004°21'0 0.0
2017-Aug-17 10:28N 51°16' E 004°21'0 0.0
2017-Aug-17 09:58N 51°16' E 004°21'0 0.0
2017-Aug-17 09:28N 51°16' E 004°21'0 0.0
2017-Aug-17 08:55N 51°16' E 004°21'0 0.0
2017-Aug-17 08:28N 51°16' E 004°21'0 0.0
2017-Aug-17 07:58N 51°16' E 004°21'0 0.0
2017-Aug-17 07:25N 51°16' E 004°21'0 0.0
2017-Aug-17 06:55N 51°16' E 004°21'0 0.0
2017-Aug-17 06:28N 51°16' E 004°21'0 0.0
2017-Aug-17 05:58N 51°16' E 004°21'0 0.0
2017-Aug-17 05:28N 51°16' E 004°21'0 0.0
2017-Aug-17 04:58N 51°16' E 004°21'0 0.0
2017-Aug-17 04:28N 51°16' E 004°21'0 0.0
2017-Aug-17 03:55N 51°16' E 004°21'0 0.0
2017-Aug-17 03:28N 51°16' E 004°21'0 0.0
2017-Aug-17 02:55N 51°16' E 004°21'0 0.0
2017-Aug-17 02:28N 51°16' E 004°21'0 0.0
2017-Aug-17 01:58N 51°16' E 004°21'0 0.0
2017-Aug-17 01:28N 51°16' E 004°21'0 0.0
2017-Aug-17 00:58N 51°16' E 004°21'0 0.0
2017-Aug-17 00:28N 51°16' E 004°21'0 0.0
2017-Aug-16 23:58N 51°16' E 004°21'0 0.0
2017-Aug-16 23:28N 51°16' E 004°21'0 0.0
2017-Aug-16 22:58N 51°16' E 004°21'0 0.0
2017-Aug-16 22:28N 51°16' E 004°21'0 0.0
2017-Aug-16 21:58N 51°16' E 004°21'0 0.0
2017-Aug-16 21:28N 51°16' E 004°21'0 0.0
2017-Aug-16 20:58N 51°16' E 004°21'0 0.0
2017-Aug-16 20:28N 51°16' E 004°21'0 0.0
2017-Aug-16 19:58N 51°16' E 004°21'0 0.0
2017-Aug-16 19:28N 51°16' E 004°21'0 0.0
2017-Aug-16 18:58N 51°16' E 004°21'0 0.0
2017-Aug-16 18:28N 51°16' E 004°21'0 0.0
2017-Aug-16 17:58N 51°16' E 004°21'0 0.0
2017-Aug-16 17:28N 51°16' E 004°21'0 0.0
2017-Aug-16 16:58N 51°16' E 004°21'0 0.0
2017-Aug-16 16:28N 51°16' E 004°21'0 0.0
2017-Aug-16 15:55N 51°16' E 004°21'0 0.0
2017-Aug-16 15:28N 51°16' E 004°21'0 0.0
2017-Aug-16 14:58N 51°16' E 004°21'0 0.0
2017-Aug-16 14:28N 51°16' E 004°21'0 0.0
2017-Aug-16 13:58N 51°16' E 004°21'0 0.0
2017-Aug-16 13:28N 51°16' E 004°21'0 0.0
2017-Aug-16 12:58N 51°16' E 004°21'0 0.0
2017-Aug-16 12:25N 51°16' E 004°21'0 0.0
2017-Aug-16 11:58N 51°16' E 004°21'0 0.0
2017-Aug-16 11:28N 51°16' E 004°21'0 0.0
2017-Aug-16 10:58N 51°16' E 004°21'0 0.0
2017-Aug-16 10:25N 51°16' E 004°21'0 0.0
2017-Aug-16 09:58N 51°16' E 004°21'0 0.0
2017-Aug-16 09:28N 51°16' E 004°21'0 0.0
2017-Aug-16 08:58N 51°16' E 004°21'0 0.0
2017-Aug-16 08:28N 51°16' E 004°21'0 0.0
2017-Aug-16 07:55N 51°16' E 004°21'0 0.0
2017-Aug-16 07:28N 51°16' E 004°21'0 0.0
2017-Aug-16 06:58N 51°16' E 004°21'0 0.0
2017-Aug-16 06:28N 51°16' E 004°21'0 0.0
2017-Aug-16 05:55N 51°16' E 004°21'0 0.0
2017-Aug-16 05:28N 51°16' E 004°21'0 0.0
2017-Aug-16 04:58N 51°16' E 004°21'0 0.0
2017-Aug-16 04:25N 51°16' E 004°21'0 0.0
2017-Aug-16 03:58N 51°16' E 004°21'0 0.0
2017-Aug-16 03:28N 51°16' E 004°21'0 0.0
2017-Aug-16 02:58N 51°16' E 004°21'0 0.0
2017-Aug-16 02:28N 51°16' E 004°21'0 0.0
2017-Aug-16 01:58N 51°16' E 004°21'0 0.0
2017-Aug-16 01:28N 51°16' E 004°21'0 0.0
2017-Aug-16 00:58N 51°16' E 004°21'0 0.0
2017-Aug-16 00:25N 51°16' E 004°21'0 0.0
2017-Aug-15 23:58N 51°16' E 004°21'0 0.0
2017-Aug-15 23:28N 51°16' E 004°21'0 0.0
2017-Aug-15 22:58N 51°16' E 004°21'0 0.0
2017-Aug-15 22:28N 51°16' E 004°21'0 0.0
2017-Aug-15 21:58N 51°16' E 004°21'0 0.0
2017-Aug-15 21:28N 51°16' E 004°21'0 0.0
2017-Aug-15 20:58N 51°16' E 004°21'0 0.0
2017-Aug-15 20:28N 51°16' E 004°21'0 0.0
2017-Aug-15 19:58N 51°16' E 004°21'0 0.0
2017-Aug-15 19:28N 51°16' E 004°21'0 0.0
2017-Aug-15 18:58N 51°16' E 004°21'0 0.0
2017-Aug-15 18:28N 51°16' E 004°21'0 0.0
2017-Aug-15 17:58N 51°16' E 004°21'0 0.0
2017-Aug-15 17:28N 51°16' E 004°21'0 0.0
2017-Aug-15 16:58N 51°16' E 004°21'0 0.0
2017-Aug-15 16:28N 51°16' E 004°21'0 0.0
2017-Aug-15 15:58N 51°16' E 004°21'0 0.0
2017-Aug-15 15:28N 51°16' E 004°21'0 0.0
2017-Aug-15 14:58N 51°16' E 004°21'0 0.0
2017-Aug-15 14:25N 51°16' E 004°21'0 0.0
2017-Aug-15 13:58N 51°16' E 004°21'0 0.0
2017-Aug-15 13:28N 51°16' E 004°21'0 0.0
2017-Aug-15 12:58N 51°16' E 004°21'0 0.0
2017-Aug-15 12:25N 51°16' E 004°21'0 0.0
2017-Aug-15 11:58N 51°16' E 004°21'0 0.0
2017-Aug-15 11:28N 51°16' E 004°21'0 0.0
2017-Aug-15 10:58N 51°16' E 004°21'0 0.0
2017-Aug-15 10:28N 51°16' E 004°21'0 0.0
2017-Aug-15 09:55N 51°16' E 004°21'0 0.0
2017-Aug-15 09:28N 51°16' E 004°21'0 0.0
2017-Aug-15 08:58N 51°16' E 004°21'0 0.4
2017-Aug-15 08:30N 51°16' E 004°22'2 3.7
2017-Aug-15 08:00N 51°18' E 004°20'3 7.0
2017-Aug-15 07:30N 51°21' E 004°17'0 0.1
2017-Aug-15 07:01N 51°21' E 004°17'0 0.0
2017-Aug-15 06:31N 51°21' E 004°17'0 0.2
2017-Aug-15 06:00N 51°21' E 004°17'2 3.8
2017-Aug-15 05:31N 51°21' E 004°14'3 6.3
2017-Aug-15 05:00N 51°24' E 004°11'4 7.6
2017-Aug-15 04:30N 51°22' E 004°05'3 6.5
2017-Aug-15 04:01N 51°25' E 004°02'3 5.7
2017-Aug-15 03:31N 51°24' E 003°57'611.6
2017-Aug-15 03:00N 51°21' E 003°50'612.4
2017-Aug-15 02:30N 51°25' E 003°42'5 9.8
2017-Aug-15 02:00N 51°26' E 003°35'5 9.6
2017-Aug-15 01:30N 51°25' E 003°27'612.5
2017-Aug-15 01:00N 51°24' E 003°17'611.8
2017-Aug-15 00:30N 51°24' E 003°08'611.0
2017-Aug-15 00:00N 51°23' E 002°59'612.1
2017-Aug-14 23:30N 51°22' E 002°50'611.1
2017-Aug-14 23:00N 51°22' E 002°41'4 7.7
2017-Aug-14 22:30N 51°24' E 002°36'0 0.7
2017-Aug-14 21:59N 51°24' E 002°35'0 0.1
2017-Aug-14 21:29N 51°24' E 002°35'0 0.2
2017-Aug-14 20:59N 51°24' E 002°35'0 0.1
2017-Aug-14 20:29N 51°24' E 002°36'0 0.1
2017-Aug-14 19:59N 51°24' E 002°36'0 0.0
2017-Aug-14 19:29N 51°24' E 002°36'0 0.0
2017-Aug-14 18:59N 51°24' E 002°36'0 0.0
2017-Aug-14 18:29N 51°24' E 002°36'0 0.0
2017-Aug-14 17:59N 51°24' E 002°36'0 0.0
2017-Aug-14 17:29N 51°24' E 002°36'0 0.0
2017-Aug-14 16:59N 51°24' E 002°36'0 0.0
2017-Aug-14 16:29N 51°24' E 002°36'0 0.2
2017-Aug-14 15:59N 51°24' E 002°36'0 0.2
2017-Aug-14 15:29N 51°24' E 002°35'0 0.1
2017-Aug-14 14:59N 51°24' E 002°35'0 0.0
2017-Aug-14 14:29N 51°24' E 002°35'0 0.0
2017-Aug-14 13:59N 51°24' E 002°35'0 0.0
2017-Aug-14 13:29N 51°24' E 002°35'0 0.0
2017-Aug-14 12:59N 51°24' E 002°35'0 0.0
2017-Aug-14 12:29N 51°24' E 002°35'0 0.0
2017-Aug-14 11:59N 51°24' E 002°35'0 0.0
2017-Aug-14 11:29N 51°24' E 002°35'0 0.0
2017-Aug-14 10:56N 51°24' E 002°35'0 0.1
2017-Aug-14 10:29N 51°24' E 002°35'0 0.0
2017-Aug-14 09:59N 51°24' E 002°35'0 0.0
2017-Aug-14 09:29N 51°24' E 002°35'0 0.0
2017-Aug-14 08:59N 51°24' E 002°35'0 0.1
2017-Aug-14 08:29N 51°24' E 002°35'0 0.1
2017-Aug-14 07:59N 51°24' E 002°35'0 0.1
2017-Aug-14 07:29N 51°24' E 002°36'0 0.0
2017-Aug-14 06:59N 51°24' E 002°36'0 0.0
2017-Aug-14 06:29N 51°24' E 002°36'0 0.0
2017-Aug-14 05:59N 51°24' E 002°36'0 0.0
2017-Aug-14 05:26N 51°24' E 002°36'0 0.0
2017-Aug-14 04:59N 51°24' E 002°36'0 0.0
2017-Aug-14 04:29N 51°24' E 002°36'0 0.0
2017-Aug-14 03:59N 51°24' E 002°36'0 0.0
2017-Aug-14 03:29N 51°24' E 002°36'0 0.2
2017-Aug-14 02:59N 51°24' E 002°36'0 0.2
2017-Aug-14 02:29N 51°24' E 002°35'0 0.1
2017-Aug-14 01:59N 51°24' E 002°35'0 0.0
2017-Aug-14 01:29N 51°24' E 002°35'0 0.0
2017-Aug-14 00:59N 51°24' E 002°35'0 0.0
2017-Aug-14 00:29N 51°24' E 002°35'0 0.0
2017-Aug-13 23:59N 51°24' E 002°35'0 0.0
2017-Aug-13 23:29N 51°24' E 002°35'0 0.0
2017-Aug-13 22:59N 51°24' E 002°35'0 0.0
2017-Aug-13 22:29N 51°24' E 002°35'0 0.0
2017-Aug-13 21:59N 51°24' E 002°35'0 0.0
2017-Aug-13 21:29N 51°24' E 002°35'0 0.0
2017-Aug-13 20:59N 51°24' E 002°35'0 0.1
2017-Aug-13 20:29N 51°24' E 002°35'0 0.2
2017-Aug-13 19:59N 51°24' E 002°35'0 0.1
2017-Aug-13 19:26N 51°24' E 002°36'0 0.1
2017-Aug-13 18:59N 51°24' E 002°36'0 0.0
2017-Aug-13 18:29N 51°24' E 002°36'0 0.0
2017-Aug-13 17:59N 51°24' E 002°36'0 0.0
2017-Aug-13 17:29N 51°24' E 002°36'0 0.0
2017-Aug-13 16:59N 51°24' E 002°36'0 0.0
2017-Aug-13 16:29N 51°24' E 002°36'0 0.0
2017-Aug-13 15:59N 51°24' E 002°36'0 0.1
2017-Aug-13 15:29N 51°24' E 002°36'0 0.1
2017-Aug-13 14:59N 51°24' E 002°36'0 0.1
2017-Aug-13 14:29N 51°24' E 002°36'0 0.2
2017-Aug-13 13:59N 51°24' E 002°35'0 0.1
2017-Aug-13 13:29N 51°24' E 002°35'0 0.0
2017-Aug-13 12:59N 51°24' E 002°35'0 0.0
2017-Aug-13 12:29N 51°24' E 002°35'0 0.0
2017-Aug-13 11:59N 51°24' E 002°35'0 0.0
2017-Aug-13 11:29N 51°24' E 002°35'0 0.0
2017-Aug-13 10:59N 51°24' E 002°35'0 0.0
2017-Aug-13 10:29N 51°24' E 002°35'0 0.0
2017-Aug-13 09:59N 51°24' E 002°35'0 0.0
2017-Aug-13 09:29N 51°24' E 002°35'0 0.0
2017-Aug-13 08:59N 51°24' E 002°35'0 0.0
2017-Aug-13 08:29N 51°24' E 002°35'0 0.1
2017-Aug-13 08:00N 51°24' E 002°36'0 0.2
2017-Aug-13 07:29N 51°24' E 002°36'0 0.1
2017-Aug-13 06:59N 51°24' E 002°36'0 0.0
2017-Aug-13 06:29N 51°24' E 002°36'0 0.0
2017-Aug-13 05:59N 51°24' E 002°36'0 0.0
2017-Aug-13 05:29N 51°24' E 002°36'0 0.0
2017-Aug-13 04:59N 51°24' E 002°36'0 0.0
2017-Aug-13 04:29N 51°24' E 002°36'0 0.0
2017-Aug-13 03:59N 51°24' E 002°36'0 0.0
2017-Aug-13 03:29N 51°24' E 002°36'0 0.1
2017-Aug-13 02:59N 51°24' E 002°36'0 0.1
2017-Aug-13 02:29N 51°24' E 002°36'0 0.1
2017-Aug-13 01:53N 51°24' E 002°36'0 0.1
2017-Aug-13 01:29N 51°24' E 002°36'0 0.1
2017-Aug-13 00:59N 51°24' E 002°35'0 0.1
2017-Aug-13 00:29N 51°24' E 002°35'0 0.0
2017-Aug-12 23:56N 51°24' E 002°35'0 0.0
2017-Aug-12 23:29N 51°24' E 002°35'0 0.0
2017-Aug-12 22:59N 51°24' E 002°35'0 0.0
2017-Aug-12 22:29N 51°24' E 002°35'0 0.0
2017-Aug-12 21:59N 51°24' E 002°35'0 0.1
2017-Aug-12 21:29N 51°24' E 002°35'0 0.1
2017-Aug-12 20:59N 51°24' E 002°35'0 0.2
2017-Aug-12 20:29N 51°24' E 002°36'0 0.1
2017-Aug-12 19:59N 51°24' E 002°36'0 0.0
2017-Aug-12 19:29N 51°24' E 002°36'0 0.1
2017-Aug-12 18:59N 51°24' E 002°36'0 0.0
2017-Aug-12 18:29N 51°24' E 002°36'0 0.0
2017-Aug-12 17:59N 51°24' E 002°36'0 0.0
2017-Aug-12 17:29N 51°24' E 002°36'0 0.0
2017-Aug-12 16:59N 51°24' E 002°36'0 0.0
2017-Aug-12 16:29N 51°24' E 002°36'0 0.0
2017-Aug-12 15:59N 51°24' E 002°36'0 0.0
2017-Aug-12 15:29N 51°24' E 002°36'0 0.0
2017-Aug-12 14:59N 51°24' E 002°36'0 0.0
2017-Aug-12 14:29N 51°24' E 002°36'0 0.0
2017-Aug-12 13:59N 51°24' E 002°36'0 0.1
2017-Aug-12 13:29N 51°24' E 002°36'0 0.3
2017-Aug-12 12:59N 51°24' E 002°35'0 0.1
2017-Aug-12 12:29N 51°24' E 002°35'0 0.0
2017-Aug-12 11:59N 51°24' E 002°35'0 0.0
2017-Aug-12 11:29N 51°24' E 002°35'0 0.0
2017-Aug-12 10:59N 51°24' E 002°35'0 0.0
2017-Aug-12 10:29N 51°24' E 002°35'0 0.0
2017-Aug-12 09:59N 51°24' E 002°35'0 0.0
2017-Aug-12 09:29N 51°24' E 002°35'0 0.1
2017-Aug-12 08:59N 51°24' E 002°36'0 0.2
2017-Aug-12 08:29N 51°24' E 002°36'0 0.1
2017-Aug-12 07:56N 51°24' E 002°36'0 0.1
2017-Aug-12 07:29N 51°24' E 002°36'0 0.0
2017-Aug-12 06:59N 51°24' E 002°36'0 0.0
2017-Aug-12 06:29N 51°24' E 002°36'0 0.0
2017-Aug-12 05:59N 51°24' E 002°36'0 0.0
2017-Aug-12 05:29N 51°24' E 002°36'0 0.0
2017-Aug-12 04:59N 51°24' E 002°36'0 0.0
2017-Aug-12 04:26N 51°24' E 002°36'0 0.0
2017-Aug-12 03:59N 51°24' E 002°36'0 0.0
2017-Aug-12 03:29N 51°24' E 002°36'0 0.0
2017-Aug-12 02:59N 51°24' E 002°36'0 0.0
2017-Aug-12 02:29N 51°24' E 002°36'0 0.0
2017-Aug-12 01:59N 51°24' E 002°36'0 0.1
2017-Aug-12 01:29N 51°24' E 002°36'0 0.0
2017-Aug-12 00:59N 51°24' E 002°36'0 0.0
2017-Aug-12 00:29N 51°24' E 002°36'0 0.3
2017-Aug-11 23:59N 51°24' E 002°36'0 0.1
2017-Aug-11 23:29N 51°24' E 002°35'0 0.0
2017-Aug-11 22:59N 51°24' E 002°35'0 0.1
2017-Aug-11 22:29N 51°24' E 002°35'0 0.1
2017-Aug-11 21:59N 51°24' E 002°36'0 0.2
2017-Aug-11 21:29N 51°24' E 002°36'0 0.1
2017-Aug-11 20:59N 51°24' E 002°36'0 0.0
2017-Aug-11 20:26N 51°24' E 002°36'0 0.0
2017-Aug-11 19:59N 51°24' E 002°36'0 0.1
2017-Aug-11 19:29N 51°24' E 002°36'0 0.0
2017-Aug-11 18:59N 51°24' E 002°36'0 0.0
2017-Aug-11 18:29N 51°24' E 002°36'0 0.0
2017-Aug-11 17:59N 51°24' E 002°36'0 0.0
2017-Aug-11 17:29N 51°24' E 002°36'0 0.0
2017-Aug-11 16:59N 51°24' E 002°36'0 0.0
2017-Aug-11 16:29N 51°24' E 002°36'0 0.0
2017-Aug-11 15:59N 51°24' E 002°36'0 0.0
2017-Aug-11 15:29N 51°24' E 002°36'0 0.1
2017-Aug-11 14:59N 51°24' E 002°36'0 0.0
2017-Aug-11 13:59N 51°24' E 002°36'0 0.1
2017-Aug-11 13:29N 51°24' E 002°36'0 0.2
2017-Aug-11 12:56N 51°24' E 002°35'0 0.2
2017-Aug-11 12:29N 51°24' E 002°35'0 0.0
2017-Aug-11 11:59N 51°24' E 002°35'  

Dump ship's entire track history